sensor_id;sensor_type;location;lat;lon;timestamp;pressure;altitude;pressure_sealevel;temperature;humidity
62164;BME280;48149;51.132;7.178;2022-12-18T00:00:29;99799.81;;;1.72;67.79
62164;BME280;48149;51.132;7.178;2022-12-18T00:02:55;99809.72;;;1.97;66.15
62164;BME280;48149;51.132;7.178;2022-12-18T00:05:20;99810.09;;;2.23;66.25
62164;BME280;48149;51.132;7.178;2022-12-18T00:07:45;99809.09;;;2.04;66.07
62164;BME280;48149;51.132;7.178;2022-12-18T00:10:11;99810.91;;;1.63;66.43
62164;BME280;48149;51.132;7.178;2022-12-18T00:12:36;99812.97;;;1.99;66.27
62164;BME280;48149;51.132;7.178;2022-12-18T00:15:01;99808.78;;;2.38;66.78
62164;BME280;48149;51.132;7.178;2022-12-18T00:17:26;99814.25;;;2.04;65.72
62164;BME280;48149;51.132;7.178;2022-12-18T00:19:52;99801.44;;;2.33;66.05
62164;BME280;48149;51.132;7.178;2022-12-18T00:22:17;99818.78;;;2.71;64.88
62164;BME280;48149;51.132;7.178;2022-12-18T00:24:42;99807.97;;;1.97;66.30
62164;BME280;48149;51.132;7.178;2022-12-18T00:27:07;99809.19;;;2.03;67.37
62164;BME280;48149;51.132;7.178;2022-12-18T00:29:33;99812.81;;;1.91;66.97
62164;BME280;48149;51.132;7.178;2022-12-18T00:31:59;99808.44;;;2.22;66.54
62164;BME280;48149;51.132;7.178;2022-12-18T00:34:25;99817.09;;;2.01;65.62
62164;BME280;48149;51.132;7.178;2022-12-18T00:36:56;99814.78;;;1.98;66.40
62164;BME280;48149;51.132;7.178;2022-12-18T00:39:21;99812.66;;;1.83;66.77
62164;BME280;48149;51.132;7.178;2022-12-18T00:41:46;99813.13;;;1.97;67.18
62164;BME280;48149;51.132;7.178;2022-12-18T00:44:32;99820.72;;;1.99;67.05
62164;BME280;48149;51.132;7.178;2022-12-18T00:46:57;99826.44;;;1.72;67.35
62164;BME280;48149;51.132;7.178;2022-12-18T00:49:22;99820.41;;;1.62;67.00
62164;BME280;48149;51.132;7.178;2022-12-18T00:51:50;99812.72;;;2.32;65.54
62164;BME280;48149;51.132;7.178;2022-12-18T00:54:15;99809.41;;;1.90;64.79
62164;BME280;48149;51.132;7.178;2022-12-18T00:59:10;99808.53;;;2.50;64.82
62164;BME280;48149;51.132;7.178;2022-12-18T01:01:35;99806.88;;;2.40;64.32
62164;BME280;48149;51.132;7.178;2022-12-18T01:04:01;99819.75;;;1.90;65.26
62164;BME280;48149;51.132;7.178;2022-12-18T01:06:28;99821.72;;;1.77;64.56
62164;BME280;48149;51.132;7.178;2022-12-18T01:08:53;99823.34;;;2.08;63.75
62164;BME280;48149;51.132;7.178;2022-12-18T01:11:20;99811.72;;;2.14;64.87
62164;BME280;48149;51.132;7.178;2022-12-18T01:13:46;99808.72;;;2.19;66.01
62164;BME280;48149;51.132;7.178;2022-12-18T01:16:12;99814.50;;;2.41;63.87
62164;BME280;48149;51.132;7.178;2022-12-18T01:18:37;99804.47;;;2.17;64.56
62164;BME280;48149;51.132;7.178;2022-12-18T01:21:06;99794.31;;;2.16;64.00
62164;BME280;48149;51.132;7.178;2022-12-18T01:23:32;99801.75;;;2.59;63.24
62164;BME280;48149;51.132;7.178;2022-12-18T01:25:57;99809.59;;;1.98;65.19
62164;BME280;48149;51.132;7.178;2022-12-18T01:28:23;99803.72;;;1.96;65.19
62164;BME280;48149;51.132;7.178;2022-12-18T01:30:48;99801.25;;;1.85;67.20
62164;BME280;48149;51.132;7.178;2022-12-18T01:33:13;99805.50;;;1.66;66.33
62164;BME280;48149;51.132;7.178;2022-12-18T01:35:42;99801.06;;;2.07;65.03
62164;BME280;48149;51.132;7.178;2022-12-18T01:38:07;99800.22;;;1.46;65.59
62164;BME280;48149;51.132;7.178;2022-12-18T01:40:32;99807.44;;;2.03;64.94
62164;BME280;48149;51.132;7.178;2022-12-18T01:42:58;99811.16;;;2.60;63.50
62164;BME280;48149;51.132;7.178;2022-12-18T01:45:24;99806.47;;;2.35;64.56
62164;BME280;48149;51.132;7.178;2022-12-18T01:48:08;99802.72;;;2.18;64.64
62164;BME280;48149;51.132;7.178;2022-12-18T01:53:06;99816.53;;;2.38;63.74
62164;BME280;48149;51.132;7.178;2022-12-18T01:56:05;99813.09;;;2.28;63.27
62164;BME280;48149;51.132;7.178;2022-12-18T01:59:09;99806.59;;;2.43;64.39
62164;BME280;48149;51.132;7.178;2022-12-18T02:01:09;99808.63;;;1.99;64.92
62164;BME280;48149;51.132;7.178;2022-12-18T02:03:35;99802.47;;;2.21;64.29
62164;BME280;48149;51.132;7.178;2022-12-18T02:11:18;99812.81;;;2.80;61.96
62164;BME280;48149;51.132;7.178;2022-12-18T02:18:46;99816.09;;;2.92;60.64
62164;BME280;48149;51.132;7.178;2022-12-18T02:21:57;99816.28;;;2.50;62.11
62164;BME280;48149;51.132;7.178;2022-12-18T02:26:38;99809.00;;;2.25;65.17
62164;BME280;48149;51.132;7.178;2022-12-18T02:31:34;99796.31;;;2.12;64.57
62164;BME280;48149;51.132;7.178;2022-12-18T02:34:02;99804.59;;;2.06;64.82
62164;BME280;48149;51.132;7.178;2022-12-18T02:36:28;99796.25;;;2.24;64.56
62164;BME280;48149;51.132;7.178;2022-12-18T02:38:56;99797.84;;;2.74;63.32
62164;BME280;48149;51.132;7.178;2022-12-18T02:41:24;99789.63;;;2.50;63.88
62164;BME280;48149;51.132;7.178;2022-12-18T02:43:53;99782.47;;;2.82;63.74
62164;BME280;48149;51.132;7.178;2022-12-18T02:46:33;99788.13;;;2.47;64.15
62164;BME280;48149;51.132;7.178;2022-12-18T02:51:38;99772.22;;;2.02;66.81
62164;BME280;48149;51.132;7.178;2022-12-18T02:54:09;99778.63;;;1.98;69.06
62164;BME280;48149;51.132;7.178;2022-12-18T02:56:46;99776.44;;;2.03;66.51
62164;BME280;48149;51.132;7.178;2022-12-18T02:59:15;99777.78;;;2.38;64.32
62164;BME280;48149;51.132;7.178;2022-12-18T03:05:05;99781.72;;;2.42;65.95
62164;BME280;48149;51.132;7.178;2022-12-18T03:07:44;99781.16;;;2.29;65.47
62164;BME280;48149;51.132;7.178;2022-12-18T03:10:13;99779.47;;;1.78;67.34
62164;BME280;48149;51.132;7.178;2022-12-18T03:12:41;99780.34;;;1.68;67.86
62164;BME280;48149;51.132;7.178;2022-12-18T03:17:42;99773.81;;;2.43;66.54
62164;BME280;48149;51.132;7.178;2022-12-18T03:20:13;99775.03;;;2.20;66.07
62164;BME280;48149;51.132;7.178;2022-12-18T03:22:39;99770.34;;;2.04;66.31
62164;BME280;48149;51.132;7.178;2022-12-18T03:25:09;99764.47;;;2.52;65.61
62164;BME280;48149;51.132;7.178;2022-12-18T03:27:36;99759.81;;;1.56;68.36
62164;BME280;48149;51.132;7.178;2022-12-18T03:30:03;99748.41;;;2.48;67.08
62164;BME280;48149;51.132;7.178;2022-12-18T03:32:35;99747.72;;;1.87;68.49
62164;BME280;48149;51.132;7.178;2022-12-18T03:35:03;99748.97;;;2.42;67.50
62164;BME280;48149;51.132;7.178;2022-12-18T03:37:31;99740.53;;;1.60;68.24
62164;BME280;48149;51.132;7.178;2022-12-18T03:39:56;99744.56;;;2.24;68.30
62164;BME280;48149;51.132;7.178;2022-12-18T03:47:28;99747.88;;;2.45;68.05
62164;BME280;48149;51.132;7.178;2022-12-18T03:49:57;99745.81;;;2.39;66.30
62164;BME280;48149;51.132;7.178;2022-12-18T03:54:50;99748.69;;;2.93;64.37
62164;BME280;48149;51.132;7.178;2022-12-18T03:57:17;99741.47;;;2.87;65.18
62164;BME280;48149;51.132;7.178;2022-12-18T03:59:43;99741.06;;;2.44;66.44
62164;BME280;48149;51.132;7.178;2022-12-18T04:02:10;99733.22;;;2.05;68.00
62164;BME280;48149;51.132;7.178;2022-12-18T04:04:38;99731.44;;;1.96;67.03
62164;BME280;48149;51.132;7.178;2022-12-18T04:07:04;99735.88;;;2.44;66.05
62164;BME280;48149;51.132;7.178;2022-12-18T04:09:30;99744.94;;;2.09;67.66
62164;BME280;48149;51.132;7.178;2022-12-18T04:11:58;99731.41;;;2.75;65.60
62164;BME280;48149;51.132;7.178;2022-12-18T04:14:23;99733.53;;;2.22;67.89
62164;BME280;48149;51.132;7.178;2022-12-18T04:16:48;99729.50;;;2.38;65.18
62164;BME280;48149;51.132;7.178;2022-12-18T04:19:14;99729.09;;;2.33;68.01
62164;BME280;48149;51.132;7.178;2022-12-18T04:21:39;99736.66;;;2.15;68.35
62164;BME280;48149;51.132;7.178;2022-12-18T04:24:04;99742.47;;;2.77;66.79
62164;BME280;48149;51.132;7.178;2022-12-18T04:26:30;99740.59;;;2.10;66.96
62164;BME280;48149;51.132;7.178;2022-12-18T04:28:55;99746.72;;;2.19;66.71
62164;BME280;48149;51.132;7.178;2022-12-18T04:31:20;99744.03;;;2.20;67.75
62164;BME280;48149;51.132;7.178;2022-12-18T04:33:45;99745.13;;;2.46;65.03
62164;BME280;48149;51.132;7.178;2022-12-18T04:36:12;99737.28;;;2.77;65.80
62164;BME280;48149;51.132;7.178;2022-12-18T04:38:37;99735.34;;;2.59;64.31
62164;BME280;48149;51.132;7.178;2022-12-18T04:41:02;99736.03;;;2.42;65.81
62164;BME280;48149;51.132;7.178;2022-12-18T04:43:28;99736.03;;;2.90;64.01
62164;BME280;48149;51.132;7.178;2022-12-18T04:46:05;99734.78;;;2.37;64.95
62164;BME280;48149;51.132;7.178;2022-12-18T04:48:30;99725.50;;;2.15;66.62
62164;BME280;48149;51.132;7.178;2022-12-18T04:50:55;99729.91;;;2.91;65.31
62164;BME280;48149;51.132;7.178;2022-12-18T04:53:21;99732.50;;;2.53;65.28
62164;BME280;48149;51.132;7.178;2022-12-18T04:55:46;99730.34;;;2.67;66.47
62164;BME280;48149;51.132;7.178;2022-12-18T04:58:12;99732.66;;;2.61;66.54
62164;BME280;48149;51.132;7.178;2022-12-18T05:00:38;99725.44;;;2.74;65.68
62164;BME280;48149;51.132;7.178;2022-12-18T05:03:03;99733.19;;;2.45;66.36
62164;BME280;48149;51.132;7.178;2022-12-18T05:05:28;99733.22;;;2.74;64.16
62164;BME280;48149;51.132;7.178;2022-12-18T05:07:53;99721.63;;;2.78;64.03
62164;BME280;48149;51.132;7.178;2022-12-18T05:10:19;99717.31;;;2.00;65.93
62164;BME280;48149;51.132;7.178;2022-12-18T05:12:44;99713.03;;;2.68;65.38
62164;BME280;48149;51.132;7.178;2022-12-18T05:15:30;99707.19;;;2.66;65.09
62164;BME280;48149;51.132;7.178;2022-12-18T05:17:57;99717.25;;;2.50;64.41
62164;BME280;48149;51.132;7.178;2022-12-18T05:20:23;99714.41;;;2.72;64.04
62164;BME280;48149;51.132;7.178;2022-12-18T05:22:49;99714.31;;;2.05;64.99
62164;BME280;48149;51.132;7.178;2022-12-18T05:25:15;99716.56;;;2.29;65.27
62164;BME280;48149;51.132;7.178;2022-12-18T05:27:40;99715.06;;;2.93;64.69
62164;BME280;48149;51.132;7.178;2022-12-18T05:30:05;99708.69;;;2.78;64.20
62164;BME280;48149;51.132;7.178;2022-12-18T05:32:32;99712.47;;;2.26;65.15
62164;BME280;48149;51.132;7.178;2022-12-18T05:34:57;99722.44;;;2.88;64.01
62164;BME280;48149;51.132;7.178;2022-12-18T05:37:24;99715.22;;;2.63;63.58
62164;BME280;48149;51.132;7.178;2022-12-18T05:39:51;99702.81;;;2.19;63.94
62164;BME280;48149;51.132;7.178;2022-12-18T05:42:16;99707.19;;;2.95;63.47
62164;BME280;48149;51.132;7.178;2022-12-18T05:44:41;99717.16;;;2.61;63.91
62164;BME280;48149;51.132;7.178;2022-12-18T05:47:08;99718.22;;;2.87;60.91
62164;BME280;48149;51.132;7.178;2022-12-18T05:49:33;99705.56;;;2.75;62.67
62164;BME280;48149;51.132;7.178;2022-12-18T05:51:58;99713.53;;;3.19;62.66
62164;BME280;48149;51.132;7.178;2022-12-18T05:54:26;99716.84;;;2.45;61.43
62164;BME280;48149;51.132;7.178;2022-12-18T05:56:51;99727.06;;;2.85;62.56
62164;BME280;48149;51.132;7.178;2022-12-18T05:59:16;99726.66;;;2.70;61.52
62164;BME280;48149;51.132;7.178;2022-12-18T06:01:42;99729.91;;;3.10;62.23
62164;BME280;48149;51.132;7.178;2022-12-18T06:04:09;99741.09;;;3.01;62.61
62164;BME280;48149;51.132;7.178;2022-12-18T06:06:34;99739.69;;;2.49;62.58
62164;BME280;48149;51.132;7.178;2022-12-18T06:09:00;99743.13;;;2.59;62.67
62164;BME280;48149;51.132;7.178;2022-12-18T06:11:26;99755.78;;;2.82;60.88
62164;BME280;48149;51.132;7.178;2022-12-18T06:13:55;99751.13;;;2.47;62.04
62164;BME280;48149;51.132;7.178;2022-12-18T06:16:21;99756.84;;;2.41;61.18
62164;BME280;48149;51.132;7.178;2022-12-18T06:18:46;99745.97;;;2.56;62.22
62164;BME280;48149;51.132;7.178;2022-12-18T06:21:12;99762.72;;;3.19;60.04
62164;BME280;48149;51.132;7.178;2022-12-18T06:23:37;99767.59;;;2.65;61.97
62164;BME280;48149;51.132;7.178;2022-12-18T06:26:06;99772.38;;;2.60;62.83
62164;BME280;48149;51.132;7.178;2022-12-18T06:28:32;99780.25;;;2.78;60.20
62164;BME280;48149;51.132;7.178;2022-12-18T06:30:57;99775.91;;;2.59;61.59
62164;BME280;48149;51.132;7.178;2022-12-18T06:33:25;99785.97;;;2.62;60.38
62164;BME280;48149;51.132;7.178;2022-12-18T06:35:50;99788.41;;;2.54;61.64
62164;BME280;48149;51.132;7.178;2022-12-18T06:38:15;99779.88;;;2.73;60.64
62164;BME280;48149;51.132;7.178;2022-12-18T06:40:41;99772.75;;;2.55;59.25
62164;BME280;48149;51.132;7.178;2022-12-18T06:43:06;99765.97;;;2.45;61.15
62164;BME280;48149;51.132;7.178;2022-12-18T06:45:31;99765.28;;;2.72;61.84
62164;BME280;48149;51.132;7.178;2022-12-18T06:47:56;99761.06;;;2.42;61.80
62164;BME280;48149;51.132;7.178;2022-12-18T06:50:21;99763.94;;;2.96;60.02
62164;BME280;48149;51.132;7.178;2022-12-18T06:52:47;99760.81;;;2.74;60.46
62164;BME280;48149;51.132;7.178;2022-12-18T06:55:12;99750.47;;;2.54;60.70
62164;BME280;48149;51.132;7.178;2022-12-18T06:57:37;99742.97;;;2.42;59.10
62164;BME280;48149;51.132;7.178;2022-12-18T07:00:04;99748.56;;;2.95;60.85
62164;BME280;48149;51.132;7.178;2022-12-18T07:02:30;99745.16;;;2.75;61.29
62164;BME280;48149;51.132;7.178;2022-12-18T07:04:55;99742.00;;;2.52;60.44
62164;BME280;48149;51.132;7.178;2022-12-18T07:07:20;99728.28;;;2.90;60.44
62164;BME280;48149;51.132;7.178;2022-12-18T07:09:46;99731.41;;;2.36;60.67
62164;BME280;48149;51.132;7.178;2022-12-18T07:12:11;99739.66;;;2.21;60.20
62164;BME280;48149;51.132;7.178;2022-12-18T07:14:36;99739.31;;;2.73;61.36
62164;BME280;48149;51.132;7.178;2022-12-18T07:17:01;99736.19;;;2.89;60.77
62164;BME280;48149;51.132;7.178;2022-12-18T07:19:27;99738.22;;;2.56;60.20
62164;BME280;48149;51.132;7.178;2022-12-18T07:21:52;99743.78;;;3.00;61.49
62164;BME280;48149;51.132;7.178;2022-12-18T07:24:17;99734.38;;;2.32;60.75
62164;BME280;48149;51.132;7.178;2022-12-18T07:26:47;99739.44;;;2.52;60.58
62164;BME280;48149;51.132;7.178;2022-12-18T07:29:13;99741.19;;;1.93;60.99
62164;BME280;48149;51.132;7.178;2022-12-18T07:31:39;99748.78;;;2.34;61.53
62164;BME280;48149;51.132;7.178;2022-12-18T07:34:05;99741.78;;;2.06;61.72
62164;BME280;48149;51.132;7.178;2022-12-18T07:36:35;99743.00;;;2.61;59.19
62164;BME280;48149;51.132;7.178;2022-12-18T07:39:00;99745.72;;;2.69;59.74
62164;BME280;48149;51.132;7.178;2022-12-18T07:41:26;99731.13;;;2.68;59.95
62164;BME280;48149;51.132;7.178;2022-12-18T07:43:51;99714.13;;;2.56;59.97
62164;BME280;48149;51.132;7.178;2022-12-18T07:46:17;99712.19;;;2.20;61.28
62164;BME280;48149;51.132;7.178;2022-12-18T07:48:42;99715.75;;;2.47;60.10
62164;BME280;48149;51.132;7.178;2022-12-18T07:51:08;99717.00;;;2.91;59.80
62164;BME280;48149;51.132;7.178;2022-12-18T07:53:34;99713.44;;;3.11;60.17
62164;BME280;48149;51.132;7.178;2022-12-18T07:55:59;99712.50;;;2.36;60.41
62164;BME280;48149;51.132;7.178;2022-12-18T07:58:26;99713.59;;;2.62;60.19
62164;BME280;48149;51.132;7.178;2022-12-18T08:00:51;99713.31;;;2.55;59.77
62164;BME280;48149;51.132;7.178;2022-12-18T08:03:17;99714.78;;;2.96;59.39
62164;BME280;48149;51.132;7.178;2022-12-18T08:05:42;99715.22;;;2.53;59.91
62164;BME280;48149;51.132;7.178;2022-12-18T08:08:08;99713.19;;;2.86;58.17
62164;BME280;48149;51.132;7.178;2022-12-18T08:10:33;99718.44;;;3.69;56.28
62164;BME280;48149;51.132;7.178;2022-12-18T08:12:58;99713.03;;;2.87;56.57
62164;BME280;48149;51.132;7.178;2022-12-18T08:15:23;99709.59;;;3.99;57.39
62164;BME280;48149;51.132;7.178;2022-12-18T08:17:48;99710.00;;;3.30;55.78
62164;BME280;48149;51.132;7.178;2022-12-18T08:20:14;99718.56;;;3.40;57.01
62164;BME280;48149;51.132;7.178;2022-12-18T08:22:41;99702.56;;;2.98;56.28
62164;BME280;48149;51.132;7.178;2022-12-18T08:25:06;99707.81;;;3.26;56.81
62164;BME280;48149;51.132;7.178;2022-12-18T08:27:32;99710.16;;;3.65;54.23
62164;BME280;48149;51.132;7.178;2022-12-18T08:29:57;99694.38;;;3.59;54.76
62164;BME280;48149;51.132;7.178;2022-12-18T08:32:24;99686.59;;;3.59;55.78
62164;BME280;48149;51.132;7.178;2022-12-18T08:34:49;99676.78;;;4.07;53.69
62164;BME280;48149;51.132;7.178;2022-12-18T08:37:16;99667.03;;;3.74;54.13
62164;BME280;48149;51.132;7.178;2022-12-18T08:39:42;99676.16;;;3.78;55.56
62164;BME280;48149;51.132;7.178;2022-12-18T08:42:07;99671.44;;;3.64;53.60
62164;BME280;48149;51.132;7.178;2022-12-18T08:44:51;99654.75;;;4.21;54.57
62164;BME280;48149;51.132;7.178;2022-12-18T08:47:16;99649.34;;;3.97;54.29
62164;BME280;48149;51.132;7.178;2022-12-18T08:49:42;99650.41;;;3.76;54.40
62164;BME280;48149;51.132;7.178;2022-12-18T08:52:08;99653.41;;;4.17;53.30
62164;BME280;48149;51.132;7.178;2022-12-18T08:54:33;99667.34;;;4.51;53.35
62164;BME280;48149;51.132;7.178;2022-12-18T08:56:59;99662.78;;;5.14;50.62
62164;BME280;48149;51.132;7.178;2022-12-18T08:59:24;99666.59;;;4.06;51.91
62164;BME280;48149;51.132;7.178;2022-12-18T09:01:49;99677.84;;;4.67;52.41
62164;BME280;48149;51.132;7.178;2022-12-18T09:04:16;99681.50;;;4.74;50.08
62164;BME280;48149;51.132;7.178;2022-12-18T09:06:41;99671.16;;;4.82;49.53
62164;BME280;48149;51.132;7.178;2022-12-18T09:09:07;99668.78;;;6.08;48.77
62164;BME280;48149;51.132;7.178;2022-12-18T09:11:32;99673.06;;;7.14;45.83
62164;BME280;48149;51.132;7.178;2022-12-18T09:13:59;99675.38;;;6.93;44.86
62164;BME280;48149;51.132;7.178;2022-12-18T09:16:25;99681.84;;;6.57;44.31
62164;BME280;48149;51.132;7.178;2022-12-18T09:18:51;99672.91;;;7.08;43.66
62164;BME280;48149;51.132;7.178;2022-12-18T09:21:20;99656.16;;;6.70;45.52
62164;BME280;48149;51.132;7.178;2022-12-18T09:23:55;99638.56;;;6.07;44.74
62164;BME280;48149;51.132;7.178;2022-12-18T09:26:22;99662.66;;;6.82;44.36
62164;BME280;48149;51.132;7.178;2022-12-18T09:28:47;99658.38;;;7.29;43.37
62164;BME280;48149;51.132;7.178;2022-12-18T09:31:12;99657.00;;;8.50;41.71
62164;BME280;48149;51.132;7.178;2022-12-18T09:33:40;99644.22;;;7.24;42.64
62164;BME280;48149;51.132;7.178;2022-12-18T09:36:06;99641.75;;;7.38;41.89
62164;BME280;48149;51.132;7.178;2022-12-18T09:38:32;99636.41;;;8.32;40.69
62164;BME280;48149;51.132;7.178;2022-12-18T09:43:44;99637.19;;;7.79;41.17
62164;BME280;48149;51.132;7.178;2022-12-18T09:46:11;99639.78;;;9.59;40.21
62164;BME280;48149;51.132;7.178;2022-12-18T09:48:42;99648.16;;;7.97;40.50
62164;BME280;48149;51.132;7.178;2022-12-18T09:51:16;99660.91;;;7.53;39.32
62164;BME280;48149;51.132;7.178;2022-12-18T09:53:58;99637.38;;;7.78;39.22
62164;BME280;48149;51.132;7.178;2022-12-18T09:56:25;99640.25;;;7.91;40.90
62164;BME280;48149;51.132;7.178;2022-12-18T09:58:55;99646.38;;;9.26;39.52
62164;BME280;48149;51.132;7.178;2022-12-18T10:01:22;99643.03;;;8.43;40.28
62164;BME280;48149;51.132;7.178;2022-12-18T10:03:48;99649.88;;;7.43;39.32
62164;BME280;48149;51.132;7.178;2022-12-18T10:06:18;99637.53;;;7.29;40.02
62164;BME280;48149;51.132;7.178;2022-12-18T10:08:49;99635.50;;;7.56;41.49
62164;BME280;48149;51.132;7.178;2022-12-18T10:14:10;99627.88;;;6.59;42.06
62164;BME280;48149;51.132;7.178;2022-12-18T10:21:56;99605.56;;;8.36;41.34
62164;BME280;48149;51.132;7.178;2022-12-18T10:24:40;99605.47;;;7.68;41.42
62164;BME280;48149;51.132;7.178;2022-12-18T10:27:14;99607.63;;;7.17;40.86
62164;BME280;48149;51.132;7.178;2022-12-18T10:29:40;99599.72;;;6.86;40.74
62164;BME280;48149;51.132;7.178;2022-12-18T10:32:09;99597.97;;;7.34;41.71
62164;BME280;48149;51.132;7.178;2022-12-18T10:34:39;99596.03;;;7.67;42.41
62164;BME280;48149;51.132;7.178;2022-12-18T10:37:06;99584.66;;;7.60;41.35
62164;BME280;48149;51.132;7.178;2022-12-18T10:39:35;99591.84;;;8.79;39.01
62164;BME280;48149;51.132;7.178;2022-12-18T10:42:14;99584.47;;;8.97;39.32
62164;BME280;48149;51.132;7.178;2022-12-18T10:44:40;99578.19;;;8.54;40.22
62164;BME280;48149;51.132;7.178;2022-12-18T10:47:06;99587.09;;;9.41;39.48
62164;BME280;48149;51.132;7.178;2022-12-18T10:49:36;99570.59;;;9.41;38.18
62164;BME280;48149;51.132;7.178;2022-12-18T10:54:39;99578.22;;;9.42;37.70
62164;BME280;48149;51.132;7.178;2022-12-18T10:57:28;99581.75;;;9.49;37.39
62164;BME280;48149;51.132;7.178;2022-12-18T10:59:55;99584.47;;;9.27;37.80
62164;BME280;48149;51.132;7.178;2022-12-18T11:02:34;99575.03;;;9.76;37.82
62164;BME280;48149;51.132;7.178;2022-12-18T11:05:01;99574.84;;;8.46;39.07
62164;BME280;48149;51.132;7.178;2022-12-18T11:07:40;99573.94;;;8.91;38.86
62164;BME280;48149;51.132;7.178;2022-12-18T11:10:15;99560.22;;;8.89;38.55
62164;BME280;48149;51.132;7.178;2022-12-18T11:12:42;99559.88;;;7.64;39.81
62164;BME280;48149;51.132;7.178;2022-12-18T11:15:13;99567.28;;;8.51;38.51
62164;BME280;48149;51.132;7.178;2022-12-18T11:17:41;99561.50;;;8.18;39.90
62164;BME280;48149;51.132;7.178;2022-12-18T11:20:17;99551.88;;;8.19;39.68
62164;BME280;48149;51.132;7.178;2022-12-18T11:22:44;99553.91;;;8.69;40.27
62164;BME280;48149;51.132;7.178;2022-12-18T11:25:19;99562.78;;;8.22;39.30
62164;BME280;48149;51.132;7.178;2022-12-18T11:27:48;99565.00;;;9.15;40.49
62164;BME280;48149;51.132;7.178;2022-12-18T11:30:23;99553.72;;;8.10;39.99
62164;BME280;48149;51.132;7.178;2022-12-18T11:32:49;99562.41;;;7.80;39.73
62164;BME280;48149;51.132;7.178;2022-12-18T11:35:19;99559.16;;;10.13;40.11
62164;BME280;48149;51.132;7.178;2022-12-18T11:37:57;99545.41;;;9.04;39.35
62164;BME280;48149;51.132;7.178;2022-12-18T11:40:27;99535.56;;;8.77;39.23
62164;BME280;48149;51.132;7.178;2022-12-18T11:42:59;99519.34;;;8.96;38.85
62164;BME280;48149;51.132;7.178;2022-12-18T11:45:28;99528.22;;;8.20;40.05
62164;BME280;48149;51.132;7.178;2022-12-18T11:53:01;99510.91;;;7.82;41.47
62164;BME280;48149;51.132;7.178;2022-12-18T12:00:34;99484.41;;;7.25;41.98
62164;BME280;48149;51.132;7.178;2022-12-18T12:10:59;99507.09;;;7.39;43.94
62164;BME280;48149;51.132;7.178;2022-12-18T12:23:54;99512.09;;;7.18;44.27
62164;BME280;48149;51.132;7.178;2022-12-18T12:34:46;99507.25;;;7.07;44.14
62164;BME280;48149;51.132;7.178;2022-12-18T12:39:57;99487.63;;;6.96;44.26
62164;BME280;48149;51.132;7.178;2022-12-18T12:42:29;99491.03;;;7.58;44.54
62164;BME280;48149;51.132;7.178;2022-12-18T12:45:26;99485.25;;;7.17;44.61
62164;BME280;48149;51.132;7.178;2022-12-18T12:47:53;99475.47;;;6.72;46.77
62164;BME280;48149;51.132;7.178;2022-12-18T12:50:20;99486.72;;;6.73;46.02
62164;BME280;48149;51.132;7.178;2022-12-18T12:52:50;99473.41;;;6.60;46.87
62164;BME280;48149;51.132;7.178;2022-12-18T12:55:19;99479.06;;;7.18;47.38
62164;BME280;48149;51.132;7.178;2022-12-18T12:57:46;99478.38;;;6.85;48.03
62164;BME280;48149;51.132;7.178;2022-12-18T13:00:15;99479.06;;;7.18;46.72
62164;BME280;48149;51.132;7.178;2022-12-18T13:07:52;99484.50;;;7.31;47.23
62164;BME280;48149;51.132;7.178;2022-12-18T13:20:47;99484.50;;;7.31;47.43
62164;BME280;48149;51.132;7.178;2022-12-18T13:25:45;99495.72;;;6.38;48.60
62164;BME280;48149;51.132;7.178;2022-12-18T13:28:13;99489.41;;;6.24;49.03
62164;BME280;48149;51.132;7.178;2022-12-18T13:30:43;99494.13;;;6.05;49.85
62164;BME280;48149;51.132;7.178;2022-12-18T13:40:59;99483.22;;;6.33;49.16
62164;BME280;48149;51.132;7.178;2022-12-18T13:43:41;99485.34;;;6.22;49.83
62164;BME280;48149;51.132;7.178;2022-12-18T13:48:59;99476.09;;;6.03;49.66
62164;BME280;48149;51.132;7.178;2022-12-18T13:51:25;99470.34;;;6.48;50.48
62164;BME280;48149;51.132;7.178;2022-12-18T13:53:52;99463.72;;;6.21;49.80
62164;BME280;48149;51.132;7.178;2022-12-18T13:56:21;99457.66;;;5.40;51.80
62164;BME280;48149;51.132;7.178;2022-12-18T13:59:02;99463.22;;;6.34;49.52
62164;BME280;48149;51.132;7.178;2022-12-18T14:01:29;99455.28;;;6.19;49.69
62164;BME280;48149;51.132;7.178;2022-12-18T14:07:01;99451.78;;;6.67;50.05
62164;BME280;48149;51.132;7.178;2022-12-18T14:09:29;99453.75;;;6.57;50.33
62164;BME280;48149;51.132;7.178;2022-12-18T14:11:55;99453.19;;;6.23;50.17
62164;BME280;48149;51.132;7.178;2022-12-18T14:14:42;99452.00;;;5.77;49.78
62164;BME280;48149;51.132;7.178;2022-12-18T14:17:09;99449.38;;;5.36;50.66
62164;BME280;48149;51.132;7.178;2022-12-18T14:19:36;99438.41;;;5.99;50.52
62164;BME280;48149;51.132;7.178;2022-12-18T14:22:02;99435.84;;;5.01;50.60
62164;BME280;48149;51.132;7.178;2022-12-18T14:24:28;99432.44;;;5.00;51.93
62164;BME280;48149;51.132;7.178;2022-12-18T14:26:56;99431.41;;;5.51;50.05
62164;BME280;48149;51.132;7.178;2022-12-18T14:29:37;99418.56;;;5.74;48.92
62164;BME280;48149;51.132;7.178;2022-12-18T14:34:33;99433.69;;;5.70;50.43
62164;BME280;48149;51.132;7.178;2022-12-18T14:36:58;99414.34;;;5.49;50.46
62164;BME280;48149;51.132;7.178;2022-12-18T14:39:23;99423.56;;;4.77;52.21
62164;BME280;48149;51.132;7.178;2022-12-18T14:41:50;99422.16;;;4.49;53.22
62164;BME280;48149;51.132;7.178;2022-12-18T14:44:17;99410.03;;;4.91;52.25
62164;BME280;48149;51.132;7.178;2022-12-18T14:46:44;99413.00;;;4.28;53.89
62164;BME280;48149;51.132;7.178;2022-12-18T14:51:49;99388.66;;;4.55;53.30
62164;BME280;48149;51.132;7.178;2022-12-18T14:54:16;99405.94;;;4.89;51.74
62164;BME280;48149;51.132;7.178;2022-12-18T14:56:46;99414.78;;;4.62;52.80
62164;BME280;48149;51.132;7.178;2022-12-18T14:59:16;99406.56;;;4.74;51.56
62164;BME280;48149;51.132;7.178;2022-12-18T15:01:56;99391.13;;;4.73;51.52
62164;BME280;48149;51.132;7.178;2022-12-18T15:04:26;99376.00;;;4.52;51.68
62164;BME280;48149;51.132;7.178;2022-12-18T15:14:59;99384.81;;;4.00;52.63
62164;BME280;48149;51.132;7.178;2022-12-18T15:17:27;99388.94;;;4.44;52.64
62164;BME280;48149;51.132;7.178;2022-12-18T15:19:58;99397.97;;;5.48;52.20
62164;BME280;48149;51.132;7.178;2022-12-18T15:22:27;99389.91;;;4.85;51.11
62164;BME280;48149;51.132;7.178;2022-12-18T15:24:54;99396.09;;;4.50;53.20
62164;BME280;48149;51.132;7.178;2022-12-18T15:32:36;99376.88;;;4.77;52.43